sensor_id;sensor_type;location;lat;lon;timestamp;pressure;altitude;pressure_sealevel;temperature;humidity
32789;BME280;19141;48.980;8.410;2023-02-24T05:22:32;99667.78;;;7.65;100.00
32789;BME280;19141;48.980;8.410;2023-02-24T05:24:57;99661.44;;;7.74;100.00
32789;BME280;19141;48.980;8.410;2023-02-24T05:27:22;99659.31;;;7.78;100.00
32789;BME280;19141;48.980;8.410;2023-02-24T05:29:48;99653.50;;;7.74;100.00
32789;BME280;19141;48.980;8.410;2023-02-24T05:32:13;99653.66;;;7.81;100.00
32789;BME280;19141;48.980;8.410;2023-02-24T05:34:41;99654.47;;;7.81;100.00
32789;BME280;19141;48.980;8.410;2023-02-24T05:37:06;99635.41;;;7.86;100.00
32789;BME280;19141;48.980;8.410;2023-02-24T05:39:35;99642.53;;;7.85;100.00
32789;BME280;19141;48.980;8.410;2023-02-24T05:42:02;99637.41;;;7.84;100.00
32789;BME280;19141;48.980;8.410;2023-02-24T05:44:31;99632.94;;;7.84;100.00
32789;BME280;19141;48.980;8.410;2023-02-24T05:46:57;99638.69;;;7.88;100.00
32789;BME280;19141;48.980;8.410;2023-02-24T05:49:25;99630.25;;;7.93;100.00
32789;BME280;19141;48.980;8.410;2023-02-24T05:51:56;99624.63;;;7.96;100.00
32789;BME280;19141;48.980;8.410;2023-02-24T05:54:30;99620.28;;;7.95;100.00
32789;BME280;19141;48.980;8.410;2023-02-24T05:57:10;99610.84;;;7.92;100.00
32789;BME280;19141;48.980;8.410;2023-02-24T05:59:38;99620.97;;;7.88;100.00
32789;BME280;19141;48.980;8.410;2023-02-24T06:02:06;99609.06;;;7.84;100.00
32789;BME280;19141;48.980;8.410;2023-02-24T06:04:34;99611.34;;;7.87;100.00
32789;BME280;19141;48.980;8.410;2023-02-24T06:07:22;99608.06;;;7.85;100.00
32789;BME280;19141;48.980;8.410;2023-02-24T06:09:56;99609.22;;;7.91;100.00
32789;BME280;19141;48.980;8.410;2023-02-24T06:12:25;99602.41;;;7.88;100.00
32789;BME280;19141;48.980;8.410;2023-02-24T06:14:52;99594.63;;;7.87;100.00
32789;BME280;19141;48.980;8.410;2023-02-24T06:17:18;99597.59;;;7.92;100.00
32789;BME280;19141;48.980;8.410;2023-02-24T06:19:44;99597.41;;;7.94;100.00
32789;BME280;19141;48.980;8.410;2023-02-24T06:22:14;99596.41;;;7.95;100.00
32789;BME280;19141;48.980;8.410;2023-02-24T06:24:40;99594.59;;;7.95;100.00
32789;BME280;19141;48.980;8.410;2023-02-24T06:27:12;99592.28;;;7.92;100.00
32789;BME280;19141;48.980;8.410;2023-02-24T06:29:47;99593.81;;;7.86;100.00
32789;BME280;19141;48.980;8.410;2023-02-24T06:32:23;99591.47;;;7.92;100.00
32789;BME280;19141;48.980;8.410;2023-02-24T06:34:50;99579.69;;;7.94;100.00
32789;BME280;19141;48.980;8.410;2023-02-24T06:37:16;99582.19;;;7.96;100.00
32789;BME280;19141;48.980;8.410;2023-02-24T06:39:42;99579.34;;;7.97;100.00
32789;BME280;19141;48.980;8.410;2023-02-24T06:42:09;99591.47;;;7.92;100.00
32789;BME280;19141;48.980;8.410;2023-02-24T06:44:38;99586.03;;;7.85;100.00
32789;BME280;19141;48.980;8.410;2023-02-24T06:47:06;99586.19;;;7.83;100.00
32789;BME280;19141;48.980;8.410;2023-02-24T06:49:32;99586.19;;;7.83;100.00
32789;BME280;19141;48.980;8.410;2023-02-24T06:51:58;99595.94;;;7.91;100.00
32789;BME280;19141;48.980;8.410;2023-02-24T06:54:25;99590.16;;;7.87;100.00
32789;BME280;19141;48.980;8.410;2023-02-24T06:56:53;99579.53;;;7.87;100.00
32789;BME280;19141;48.980;8.410;2023-02-24T06:59:19;99594.75;;;7.94;100.00
32789;BME280;19141;48.980;8.410;2023-02-24T07:01:53;99601.41;;;7.98;100.00
32789;BME280;19141;48.980;8.410;2023-02-24T07:04:19;99595.72;;;8.01;100.00
32789;BME280;19141;48.980;8.410;2023-02-24T07:06:47;99601.84;;;8.01;100.00
32789;BME280;19141;48.980;8.410;2023-02-24T07:09:19;99593.25;;;7.99;100.00
32789;BME280;19141;48.980;8.410;2023-02-24T07:11:47;99597.41;;;7.94;100.00
32789;BME280;19141;48.980;8.410;2023-02-24T07:14:18;99599.44;;;7.92;100.00
32789;BME280;19141;48.980;8.410;2023-02-24T07:16:43;99591.94;;;8.03;100.00
32789;BME280;19141;48.980;8.410;2023-02-24T07:19:14;99593.75;;;8.03;100.00
32789;BME280;19141;48.980;8.410;2023-02-24T07:21:44;99603.03;;;7.99;100.00
32789;BME280;19141;48.980;8.410;2023-02-24T07:24:16;99594.44;;;7.97;100.00
32789;BME280;19141;48.980;8.410;2023-02-24T07:27:09;99584.84;;;7.96;100.00
32789;BME280;19141;48.980;8.410;2023-02-24T07:29:36;99595.72;;;8.09;100.00
32789;BME280;19141;48.980;8.410;2023-02-24T07:32:04;99587.56;;;8.10;100.00
32789;BME280;19141;48.980;8.410;2023-02-24T07:34:31;99593.53;;;8.12;100.00
32789;BME280;19141;48.980;8.410;2023-02-24T07:36:58;99576.47;;;8.07;100.00
32789;BME280;19141;48.980;8.410;2023-02-24T07:39:23;99572.81;;;8.08;100.00
32789;BME280;19141;48.980;8.410;2023-02-24T07:41:51;99568.81;;;8.12;100.00
32789;BME280;19141;48.980;8.410;2023-02-24T07:44:20;99573.25;;;8.20;100.00
32789;BME280;19141;48.980;8.410;2023-02-24T07:46:47;99571.63;;;8.19;100.00
32789;BME280;19141;48.980;8.410;2023-02-24T07:49:18;99564.66;;;8.18;100.00
32789;BME280;19141;48.980;8.410;2023-02-24T07:51:45;99567.94;;;8.20;100.00
32789;BME280;19141;48.980;8.410;2023-02-24T07:54:16;99572.09;;;8.22;100.00
32789;BME280;19141;48.980;8.410;2023-02-24T07:56:42;99560.31;;;8.25;100.00
32789;BME280;19141;48.980;8.410;2023-02-24T07:59:12;99570.41;;;8.29;100.00
32789;BME280;19141;48.980;8.410;2023-02-24T08:01:43;99561.94;;;8.26;100.00
32789;BME280;19141;48.980;8.410;2023-02-24T08:04:19;99556.47;;;8.35;100.00
32789;BME280;19141;48.980;8.410;2023-02-24T08:06:48;99552.44;;;8.39;100.00
32789;BME280;19141;48.980;8.410;2023-02-24T08:09:26;99556.59;;;8.42;100.00
32789;BME280;19141;48.980;8.410;2023-02-24T08:12:12;99556.88;;;8.47;99.91
32789;BME280;19141;48.980;8.410;2023-02-24T08:14:42;99546.91;;;8.49;99.89
32789;BME280;19141;48.980;8.410;2023-02-24T08:17:10;99562.47;;;8.52;98.51
32789;BME280;19141;48.980;8.410;2023-02-24T08:19:36;99555.81;;;8.56;100.00
32789;BME280;19141;48.980;8.410;2023-02-24T08:22:07;99553.47;;;8.61;99.10
32789;BME280;19141;48.980;8.410;2023-02-24T08:27:20;99556.94;;;8.62;98.84
32789;BME280;19141;48.980;8.410;2023-02-24T08:29:47;99547.50;;;8.59;100.00
32789;BME280;19141;48.980;8.410;2023-02-24T08:32:31;99554.94;;;8.64;100.00
32789;BME280;19141;48.980;8.410;2023-02-24T08:35:13;99553.63;;;8.60;100.00
32789;BME280;19141;48.980;8.410;2023-02-24T08:40:15;99546.25;;;8.70;100.00
32789;BME280;19141;48.980;8.410;2023-02-24T08:45:25;99546.91;;;8.72;100.00
32789;BME280;19141;48.980;8.410;2023-02-24T08:47:54;99540.31;;;8.68;100.00
32789;BME280;19141;48.980;8.410;2023-02-24T08:50:28;99545.25;;;8.71;100.00
32789;BME280;19141;48.980;8.410;2023-02-24T08:52:58;99541.41;;;8.74;100.00
32789;BME280;19141;48.980;8.410;2023-02-24T08:55:25;99538.38;;;8.62;100.00
32789;BME280;19141;48.980;8.410;2023-02-24T08:57:58;99531.22;;;8.62;100.00
32789;BME280;19141;48.980;8.410;2023-02-24T09:00:28;99526.09;;;8.61;100.00
32789;BME280;19141;48.980;8.410;2023-02-24T09:03:17;99537.00;;;8.66;100.00
32789;BME280;19141;48.980;8.410;2023-02-24T09:06:03;99533.69;;;8.64;100.00
32789;BME280;19141;48.980;8.410;2023-02-24T09:08:36;99529.50;;;8.69;100.00
32789;BME280;19141;48.980;8.410;2023-02-24T09:11:15;99529.31;;;8.71;100.00
32789;BME280;19141;48.980;8.410;2023-02-24T09:13:43;99526.13;;;8.76;99.66
32789;BME280;19141;48.980;8.410;2023-02-24T09:16:23;99526.03;;;8.69;100.00
32789;BME280;19141;48.980;8.410;2023-02-24T09:18:49;99523.72;;;8.66;100.00
32789;BME280;19141;48.980;8.410;2023-02-24T09:21:36;99523.56;;;8.67;99.80
32789;BME280;19141;48.980;8.410;2023-02-24T09:24:17;99522.06;;;8.65;99.92
32789;BME280;19141;48.980;8.410;2023-02-24T09:26:55;99519.06;;;8.68;98.06
32789;BME280;19141;48.980;8.410;2023-02-24T09:29:25;99518.34;;;8.74;98.59
32789;BME280;19141;48.980;8.410;2023-02-24T09:32:14;99512.88;;;8.76;100.00
32789;BME280;19141;48.980;8.410;2023-02-24T09:34:41;99516.16;;;8.78;100.00
32789;BME280;19141;48.980;8.410;2023-02-24T09:37:09;99515.03;;;8.72;97.56
32789;BME280;19141;48.980;8.410;2023-02-24T09:39:52;99515.41;;;8.69;98.97
32789;BME280;19141;48.980;8.410;2023-02-24T09:42:23;99514.59;;;8.68;97.52
32789;BME280;19141;48.980;8.410;2023-02-24T09:44:56;99505.69;;;8.61;95.77
32789;BME280;19141;48.980;8.410;2023-02-24T09:47:44;99510.44;;;8.66;96.73
32789;BME280;19141;48.980;8.410;2023-02-24T09:52:53;99499.28;;;8.70;98.68
32789;BME280;19141;48.980;8.410;2023-02-24T09:58:16;99498.47;;;8.70;99.16
32789;BME280;19141;48.980;8.410;2023-02-24T10:01:01;99495.00;;;8.69;99.51
32789;BME280;19141;48.980;8.410;2023-02-24T10:09:20;99489.56;;;8.63;98.87
32789;BME280;19141;48.980;8.410;2023-02-24T10:11:54;99484.16;;;8.56;99.12
32789;BME280;19141;48.980;8.410;2023-02-24T10:14:25;99478.84;;;8.56;98.19
32789;BME280;19141;48.980;8.410;2023-02-24T10:16:53;99475.66;;;8.61;98.23
32789;BME280;19141;48.980;8.410;2023-02-24T10:19:37;99468.34;;;8.63;98.89
32789;BME280;19141;48.980;8.410;2023-02-24T10:22:20;99471.63;;;8.65;99.11
32789;BME280;19141;48.980;8.410;2023-02-24T10:25:20;99473.66;;;8.63;96.68
32789;BME280;19141;48.980;8.410;2023-02-24T10:30:29;99459.09;;;8.74;98.40
32789;BME280;19141;48.980;8.410;2023-02-24T10:33:21;99454.25;;;8.77;97.90
32789;BME280;19141;48.980;8.410;2023-02-24T10:35:50;99451.06;;;8.82;97.59
32789;BME280;19141;48.980;8.410;2023-02-24T10:38:15;99446.03;;;8.87;98.62
32789;BME280;19141;48.980;8.410;2023-02-24T10:40:52;99445.47;;;8.91;97.62
32789;BME280;19141;48.980;8.410;2023-02-24T10:43:24;99446.16;;;8.93;97.72
32789;BME280;19141;48.980;8.410;2023-02-24T10:45:58;99442.09;;;8.97;97.45
32789;BME280;19141;48.980;8.410;2023-02-24T10:48:50;99443.19;;;9.03;97.70
32789;BME280;19141;48.980;8.410;2023-02-24T10:51:17;99440.34;;;9.05;97.10
32789;BME280;19141;48.980;8.410;2023-02-24T10:53:48;99435.50;;;9.08;96.26
32789;BME280;19141;48.980;8.410;2023-02-24T10:56:39;99427.81;;;9.13;97.82
32789;BME280;19141;48.980;8.410;2023-02-24T10:59:14;99414.16;;;9.16;96.50
32789;BME280;19141;48.980;8.410;2023-02-24T11:01:43;99415.06;;;9.23;96.14
32789;BME280;19141;48.980;8.410;2023-02-24T11:04:19;99412.06;;;9.27;98.00
32789;BME280;19141;48.980;8.410;2023-02-24T11:07:06;99413.59;;;9.36;96.32
32789;BME280;19141;48.980;8.410;2023-02-24T11:09:36;99408.16;;;9.44;98.08
32789;BME280;19141;48.980;8.410;2023-02-24T11:12:21;99406.31;;;9.59;95.98
32789;BME280;19141;48.980;8.410;2023-02-24T11:15:18;99385.44;;;9.77;94.37
32789;BME280;19141;48.980;8.410;2023-02-24T11:18:03;99380.50;;;9.96;95.73
32789;BME280;19141;48.980;8.410;2023-02-24T11:20:42;99383.47;;;10.07;94.64
32789;BME280;19141;48.980;8.410;2023-02-24T11:23:11;99373.59;;;10.23;93.29
32789;BME280;19141;48.980;8.410;2023-02-24T11:25:45;99373.97;;;10.41;92.60
32789;BME280;19141;48.980;8.410;2023-02-24T11:31:30;99343.25;;;10.39;92.36
32789;BME280;19141;48.980;8.410;2023-02-24T11:41:42;99332.88;;;10.50;90.73
32789;BME280;19141;48.980;8.410;2023-02-24T11:44:19;99330.63;;;10.54;90.96
32789;BME280;19141;48.980;8.410;2023-02-24T11:46:56;99317.63;;;10.72;90.79
32789;BME280;19141;48.980;8.410;2023-02-24T11:49:47;99313.00;;;10.87;89.09
32789;BME280;19141;48.980;8.410;2023-02-24T11:52:22;99302.03;;;11.10;88.21
32789;BME280;19141;48.980;8.410;2023-02-24T11:54:53;99302.47;;;11.21;87.34
32789;BME280;19141;48.980;8.410;2023-02-24T11:57:28;99291.19;;;11.19;87.93
32789;BME280;19141;48.980;8.410;2023-02-24T12:00:16;99273.16;;;11.21;88.18
32789;BME280;19141;48.980;8.410;2023-02-24T12:02:59;99284.59;;;11.14;87.82
32789;BME280;19141;48.980;8.410;2023-02-24T12:05:31;99278.88;;;11.11;88.85
32789;BME280;19141;48.980;8.410;2023-02-24T12:08:08;99268.81;;;11.06;88.59
32789;BME280;19141;48.980;8.410;2023-02-24T12:10:42;99264.69;;;10.97;89.94
32789;BME280;19141;48.980;8.410;2023-02-24T12:16:18;99262.63;;;10.99;89.57
32789;BME280;19141;48.980;8.410;2023-02-24T12:18:49;99257.50;;;10.98;90.39
32789;BME280;19141;48.980;8.410;2023-02-24T12:21:52;99256.84;;;10.82;90.99
32789;BME280;19141;48.980;8.410;2023-02-24T12:24:20;99258.25;;;10.78;91.01
32789;BME280;19141;48.980;8.410;2023-02-24T12:30:09;99247.56;;;10.72;91.50
32789;BME280;19141;48.980;8.410;2023-02-24T12:46:23;99222.97;;;10.70;91.42
32789;BME280;19141;48.980;8.410;2023-02-24T12:51:27;99225.22;;;10.73;92.06
32789;BME280;19141;48.980;8.410;2023-02-24T12:54:03;99220.38;;;10.90;91.22
32789;BME280;19141;48.980;8.410;2023-02-24T12:56:51;99214.00;;;10.77;92.36
32789;BME280;19141;48.980;8.410;2023-02-24T12:59:27;99210.94;;;10.87;92.15
32789;BME280;19141;48.980;8.410;2023-02-24T13:01:59;99202.75;;;10.95;91.02
32789;BME280;19141;48.980;8.410;2023-02-24T13:04:42;99203.94;;;10.79;91.42
32789;BME280;19141;48.980;8.410;2023-02-24T13:07:25;99192.69;;;10.84;91.86
32789;BME280;19141;48.980;8.410;2023-02-24T13:12:52;99182.81;;;10.71;91.69
32789;BME280;19141;48.980;8.410;2023-02-24T13:15:26;99179.31;;;10.64;92.05
32789;BME280;19141;48.980;8.410;2023-02-24T13:17:55;99168.88;;;10.69;92.22
32789;BME280;19141;48.980;8.410;2023-02-24T13:20:33;99162.94;;;10.74;92.17
32789;BME280;19141;48.980;8.410;2023-02-24T13:23:00;99150.44;;;10.68;92.10
32789;BME280;19141;48.980;8.410;2023-02-24T13:25:34;99157.19;;;10.64;91.59
32789;BME280;19141;48.980;8.410;2023-02-24T13:28:04;99154.53;;;10.64;91.65
32789;BME280;19141;48.980;8.410;2023-02-24T13:30:39;99160.25;;;10.60;91.35
32789;BME280;19141;48.980;8.410;2023-02-24T13:35:44;99139.88;;;10.33;91.97
32789;BME280;19141;48.980;8.410;2023-02-24T13:38:43;99149.50;;;10.41;92.03
32789;BME280;19141;48.980;8.410;2023-02-24T13:44:00;99136.41;;;10.39;92.43
32789;BME280;19141;48.980;8.410;2023-02-24T13:46:52;99139.88;;;10.33;93.69
32789;BME280;19141;48.980;8.410;2023-02-24T13:49:31;99130.88;;;10.41;93.57
32789;BME280;19141;48.980;8.410;2023-02-24T13:57:40;99127.41;;;10.40;93.48
32789;BME280;19141;48.980;8.410;2023-02-24T14:02:47;99125.75;;;10.32;93.68
32789;BME280;19141;48.980;8.410;2023-02-24T14:05:33;99118.13;;;10.29;93.34
32789;BME280;19141;48.980;8.410;2023-02-24T14:08:00;99118.78;;;10.31;93.65
32789;BME280;19141;48.980;8.410;2023-02-24T14:10:27;99118.34;;;10.28;93.71
32789;BME280;19141;48.980;8.410;2023-02-24T14:13:06;99102.72;;;10.18;93.13
32789;BME280;19141;48.980;8.410;2023-02-24T14:15:40;99108.03;;;10.18;93.02
32789;BME280;19141;48.980;8.410;2023-02-24T14:18:20;99104.16;;;10.21;92.63
32789;BME280;19141;48.980;8.410;2023-02-24T14:20:47;99105.56;;;10.17;92.43
32789;BME280;19141;48.980;8.410;2023-02-24T14:23:38;99089.41;;;10.18;92.90
32789;BME280;19141;48.980;8.410;2023-02-24T14:26:07;99088.78;;;10.16;92.85
32789;BME280;19141;48.980;8.410;2023-02-24T14:28:38;99081.81;;;10.15;92.29
32789;BME280;19141;48.980;8.410;2023-02-24T14:31:14;99087.78;;;10.17;91.48
32789;BME280;19141;48.980;8.410;2023-02-24T14:33:42;99079.97;;;10.16;92.28
32789;BME280;19141;48.980;8.410;2023-02-24T14:36:19;99067.91;;;10.20;91.90
32789;BME280;19141;48.980;8.410;2023-02-24T14:39:20;99064.78;;;10.10;92.66
32789;BME280;19141;48.980;8.410;2023-02-24T14:41:44;99067.47;;;10.16;92.26
32789;BME280;19141;48.980;8.410;2023-02-24T14:44:24;99064.41;;;10.13;91.82
32789;BME280;19141;48.980;8.410;2023-02-24T14:46:55;99056.00;;;10.09;91.80
32789;BME280;19141;48.980;8.410;2023-02-24T14:49:30;99051.91;;;10.06;92.69
32789;BME280;19141;48.980;8.410;2023-02-24T14:54:38;99049.03;;;10.08;93.08
32789;BME280;19141;48.980;8.410;2023-02-24T14:57:09;99055.59;;;10.05;93.30
32789;BME280;19141;48.980;8.410;2023-02-24T14:59:37;99046.56;;;10.00;93.57
32789;BME280;19141;48.980;8.410;2023-02-24T15:02:13;99048.78;;;9.96;93.52
32789;BME280;19141;48.980;8.410;2023-02-24T15:04:40;99044.91;;;9.92;94.16
32789;BME280;19141;48.980;8.410;2023-02-24T15:07:38;99048.59;;;9.98;94.11
32789;BME280;19141;48.980;8.410;2023-02-24T15:10:05;99038.34;;;9.95;95.24
32789;BME280;19141;48.980;8.410;2023-02-24T15:12:42;99037.13;;;9.97;94.80
32789;BME280;19141;48.980;8.410;2023-02-24T15:15:22;99031.63;;;9.99;95.02
32789;BME280;19141;48.980;8.410;2023-02-24T15:18:01;99036.50;;;9.95;94.93
32789;BME280;19141;48.980;8.410;2023-02-24T15:20:34;99032.41;;;9.93;96.04
32789;BME280;19141;48.980;8.410;2023-02-24T15:23:00;99043.66;;;9.95;95.86
32789;BME280;19141;48.980;8.410;2023-02-24T15:25:39;99031.59;;;9.92;96.29
32789;BME280;19141;48.980;8.410;2023-02-24T15:28:21;99029.31;;;9.89;95.97
32789;BME280;19141;48.980;8.410;2023-02-24T15:31:07;99021.53;;;9.88;95.65
32789;BME280;19141;48.980;8.410;2023-02-24T15:33:41;99017.03;;;9.88;95.60
32789;BME280;19141;48.980;8.410;2023-02-24T15:36:10;99019.09;;;9.86;95.57
32789;BME280;19141;48.980;8.410;2023-02-24T15:38:40;99018.28;;;9.92;94.96
32789;BME280;19141;48.980;8.410;2023-02-24T15:41:08;99014.38;;;9.88;94.87
32789;BME280;19141;48.980;8.410;2023-02-24T15:43:46;99010.31;;;9.92;94.36
32789;BME280;19141;48.980;8.410;2023-02-24T15:48:45;99013.75;;;9.86;94.31
32789;BME280;19141;48.980;8.410;2023-02-24T15:51:38;99006.00;;;9.85;94.70
32789;BME280;19141;48.980;8.410;2023-02-24T15:54:12;99004.53;;;9.82;94.42
32789;BME280;19141;48.980;8.410;2023-02-24T15:56:39;99000.66;;;9.78;93.80
32789;BME280;19141;48.980;8.410;2023-02-24T15:59:05;98996.53;;;9.75;94.71
32789;BME280;19141;48.980;8.410;2023-02-24T16:01:31;99001.84;;;9.75;94.59
32789;BME280;19141;48.980;8.410;2023-02-24T16:04:00;98999.78;;;9.77;94.55
32789;BME280;19141;48.980;8.410;2023-02-24T16:06:28;98998.97;;;9.77;94.29
32789;BME280;19141;48.980;8.410;2023-02-24T16:08:55;98984.69;;;9.78;94.06
32789;BME280;19141;48.980;8.410;2023-02-24T16:11:24;98986.69;;;9.76;94.70
32789;BME280;19141;48.980;8.410;2023-02-24T16:13:53;98986.69;;;9.76;94.47
32789;BME280;19141;48.980;8.410;2023-02-24T16:16:20;98976.47;;;9.73;93.95
32789;BME280;19141;48.980;8.410;2023-02-24T16:18:46;98965.19;;;9.71;94.15
32789;BME280;19141;48.980;8.410;2023-02-24T16:21:11;98962.75;;;9.69;93.56
32789;BME280;19141;48.980;8.410;2023-02-24T16:23:38;98962.34;;;9.66;93.65
32789;BME280;19141;48.980;8.410;2023-02-24T16:26:07;98974.19;;;9.70;93.98
32789;BME280;19141;48.980;8.410;2023-02-24T16:28:36;98970.31;;;9.66;93.92
32789;BME280;19141;48.980;8.410;2023-02-24T16:31:02;98965.78;;;9.60;94.07
32789;BME280;19141;48.980;8.410;2023-02-24T16:33:27;98979.47;;;9.57;93.09
32789;BME280;19141;48.980;8.410;2023-02-24T16:35:53;98977.63;;;9.57;93.30
32789;BME280;19141;48.980;8.410;2023-02-24T16:38:20;98977.44;;;9.59;93.86
32789;BME280;19141;48.980;8.410;2023-02-24T16:40:47;98982.13;;;9.57;92.69
32789;BME280;19141;48.980;8.410;2023-02-24T16:43:14;98973.72;;;9.53;93.18
32789;BME280;19141;48.980;8.410;2023-02-24T16:45:41;98980.25;;;9.50;93.98
32789;BME280;19141;48.980;8.410;2023-02-24T16:48:24;98979.84;;;9.47;94.16
32789;BME280;19141;48.980;8.410;2023-02-24T16:50:50;98981.69;;;9.46;94.54
32789;BME280;19141;48.980;8.410;2023-02-24T16:53:19;98971.41;;;9.43;94.76
32789;BME280;19141;48.980;8.410;2023-02-24T16:55:45;98983.69;;;9.44;94.54
32789;BME280;19141;48.980;8.410;2023-02-24T16:58:11;98989.00;;;9.44;94.64
32789;BME280;19141;48.980;8.410;2023-02-24T17:00:39;98976.50;;;9.38;94.54
32789;BME280;19141;48.980;8.410;2023-02-24T17:03:41;98977.28;;;9.32;94.74
32789;BME280;19141;48.980;8.410;2023-02-24T17:06:07;98986.91;;;9.33;94.70
32789;BME280;19141;48.980;8.410;2023-02-24T17:08:33;98976.28;;;9.33;94.51
32789;BME280;19141;48.980;8.410;2023-02-24T17:10:58;98990.16;;;9.29;94.49
32789;BME280;19141;48.980;8.410;2023-02-24T17:13:24;98986.47;;;9.30;93.77
32789;BME280;19141;48.980;8.410;2023-02-24T17:15:50;98985.66;;;9.29;94.41
32789;BME280;19141;48.980;8.410;2023-02-24T17:18:22;98986.09;;;9.33;94.02
32789;BME280;19141;48.980;8.410;2023-02-24T17:20:48;98978.09;;;9.26;93.96
32789;BME280;19141;48.980;8.410;2023-02-24T17:23:13;98976.63;;;9.23;94.25
32789;BME280;19141;48.980;8.410;2023-02-24T17:25:39;98975.19;;;9.21;94.59
32789;BME280;19141;48.980;8.410;2023-02-24T17:28:05;98977.19;;;9.19;95.09
32789;BME280;19141;48.980;8.410;2023-02-24T17:30:32;98977.00;;;9.14;95.86
32789;BME280;19141;48.980;8.410;2023-02-24T17:32:59;98976.53;;;9.10;97.01
32789;BME280;19141;48.980;8.410;2023-02-24T17:35:25;98976.53;;;9.10;99.21
32789;BME280;19141;48.980;8.410;2023-02-24T17:37:51;98983.06;;;9.08;100.00
32789;BME280;19141;48.980;8.410;2023-02-24T17:40:17;98989.56;;;9.05;100.00
32789;BME280;19141;48.980;8.410;2023-02-24T17:42:43;98985.84;;;9.00;100.00
32789;BME280;19141;48.980;8.410;2023-02-24T17:45:09;98974.00;;;8.95;100.00
32789;BME280;19141;48.980;8.410;2023-02-24T17:47:35;98979.47;;;8.87;100.00
32789;BME280;19141;48.980;8.410;2023-02-24T17:50:01;98987.44;;;8.87;100.00
32789;BME280;19141;48.980;8.410;2023-02-24T17:52:27;98991.91;;;8.87;100.00
32789;BME280;19141;48.980;8.410;2023-02-24T17:54:53;98993.50;;;8.81;100.00
32789;BME280;19141;48.980;8.410;2023-02-24T17:57:19;98987.53;;;8.79;100.00
32789;BME280;19141;48.980;8.410;2023-02-24T17:59:44;98997.53;;;8.77;100.00
32789;BME280;19141;48.980;8.410;2023-02-24T18:02:11;98987.31;;;8.74;100.00
32789;BME280;19141;48.980;8.410;2023-02-24T18:04:37;98999.94;;;8.72;100.00
32789;BME280;19141;48.980;8.410;2023-02-24T18:07:03;98987.06;;;8.69;100.00
32789;BME280;19141;48.980;8.410;2023-02-24T18:09:28;98990.91;;;8.66;100.00
32789;BME280;19141;48.980;8.410;2023-02-24T18:11:54;98996.22;;;8.66;100.00
32789;BME280;19141;48.980;8.410;2023-02-24T18:14:20;99004.13;;;8.60;100.00
32789;BME280;19141;48.980;8.410;2023-02-24T18:16:46;99003.31;;;8.59;100.00
32789;BME280;19141;48.980;8.410;2023-02-24T18:19:11;99008.81;;;8.58;100.00
32789;BME280;19141;48.980;8.410;2023-02-24T18:21:36;99000.03;;;8.57;100.00
32789;BME280;19141;48.980;8.410;2023-02-24T18:24:02;98998.13;;;8.51;100.00
32789;BME280;19141;48.980;8.410;2023-02-24T18:26:28;99006.28;;;8.50;100.00
32789;BME280;19141;48.980;8.410;2023-02-24T18:28:53;99013.63;;;8.48;100.00
32789;BME280;19141;48.980;8.410;2023-02-24T18:31:24;99015.81;;;8.44;100.00
32789;BME280;19141;48.980;8.410;2023-02-24T18:33:51;99016.84;;;8.43;100.00
32789;BME280;19141;48.980;8.410;2023-02-24T18:36:17;99022.16;;;8.43;100.00
32789;BME280;19141;48.980;8.410;2023-02-24T18:38:42;99025.34;;;8.38;100.00
32789;BME280;19141;48.980;8.410;2023-02-24T18:41:12;99016.78;;;8.36;100.00
32789;BME280;19141;48.980;8.410;2023-02-24T18:43:40;99017.59;;;8.37;100.00
32789;BME280;19141;48.980;8.410;2023-02-24T18:46:10;99015.75;;;8.37;100.00
32789;BME280;19141;48.980;8.410;2023-02-24T18:48:36;99010.34;;;8.31;100.00
32789;BME280;19141;48.980;8.410;2023-02-24T18:51:04;99017.69;;;8.29;100.00
32789;BME280;19141;48.980;8.410;2023-02-24T18:53:31;99018.88;;;8.26;100.00
32789;BME280;19141;48.980;8.410;2023-02-24T18:56:17;99024.38;;;8.25;100.00
32789;BME280;19141;48.980;8.410;2023-02-24T18:58:43;99017.63;;;8.22;100.00
32789;BME280;19141;48.980;8.410;2023-02-24T19:01:21;99014.16;;;8.22;100.00
32789;BME280;19141;48.980;8.410;2023-02-24T19:03:49;99021.44;;;8.20;100.00
32789;BME280;19141;48.980;8.410;2023-02-24T19:06:15;99017.34;;;8.17;100.00
32789;BME280;19141;48.980;8.410;2023-02-24T19:08:43;99011.22;;;8.16;100.00
32789;BME280;19141;48.980;8.410;2023-02-24T19:11:17;99014.06;;;8.15;100.00
32789;BME280;19141;48.980;8.410;2023-02-24T19:13:43;99017.16;;;8.19;100.00
32789;BME280;19141;48.980;8.410;2023-02-24T19:16:09;99011.84;;;8.19;100.00
32789;BME280;19141;48.980;8.410;2023-02-24T19:18:36;99024.31;;;8.18;100.00
32789;BME280;19141;48.980;8.410;2023-02-24T19:21:07;99021.38;;;8.13;100.00
32789;BME280;19141;48.980;8.410;2023-02-24T19:23:34;99015.13;;;8.21;100.00
32789;BME280;19141;48.980;8.410;2023-02-24T19:26:00;99022.28;;;8.20;100.00
32789;BME280;19141;48.980;8.410;2023-02-24T19:28:26;99010.03;;;8.19;100.00
32789;BME280;19141;48.980;8.410;2023-02-24T19:30:51;99010.09;;;8.26;100.00
32789;BME280;19141;48.980;8.410;2023-02-24T19:33:21;99019.69;;;8.27;100.00
32789;BME280;19141;48.980;8.410;2023-02-24T19:35:47;99021.72;;;8.25;100.00
32789;BME280;19141;48.980;8.410;2023-02-24T19:38:16;99007.16;;;8.21;100.00
32789;BME280;19141;48.980;8.410;2023-02-24T19:40:43;99018.44;;;8.23;100.00
32789;BME280;19141;48.980;8.410;2023-02-24T19:43:09;99021.84;;;8.16;100.00
32789;BME280;19141;48.980;8.410;2023-02-24T19:45:39;99012.41;;;8.14;100.00
32789;BME280;19141;48.980;8.410;2023-02-24T19:48:05;99027.97;;;8.17;100.00
32789;BME280;19141;48.980;8.410;2023-02-24T19:50:31;99009.00;;;8.20;100.00
32789;BME280;19141;48.980;8.410;2023-02-24T19:52:56;99016.34;;;8.18;100.00
32789;BME280;19141;48.980;8.410;2023-02-24T19:55:21;99017.78;;;8.21;99.44
32789;BME280;19141;48.980;8.410;2023-02-24T19:57:52;99021.09;;;8.23;98.71
32789;BME280;19141;48.980;8.410;2023-02-24T20:00:18;99024.38;;;8.25;98.52
32789;BME280;19141;48.980;8.410;2023-02-24T20:02:45;99027.22;;;8.23;98.13
32789;BME280;19141;48.980;8.410;2023-02-24T20:05:10;99015.59;;;8.24;97.58
32789;BME280;19141;48.980;8.410;2023-02-24T20:07:36;99028.47;;;8.27;97.15